EUG weather

Mahlon Sweet Field
Eugene, Oregon, United States

Public forecast

Using degrees Fahrenheit for public forecast. Weather courtesy of forecast.io.

Current aviation weather report (METAR) for Mahlon Sweet Field

Retrieved 2019/12/15 06:54 UTC (48 minutes ago):

KEUG 150654Z 00000KT 10SM BKN035 OVC050 05/03 A3003 RMK AO2 SLP170 P0000 T00500033

Aviation forecast (TAF) for Mahlon Sweet Field

Retrieved 2019/12/15 06:36 UTC (1 hour ago):

TAF KEUG 150535Z 1506/1606 VRB03KT P6SM VCSH SCT030 BKN050 FM150800 10006KT 3SM BR SCT005 BKN025 FM150900 00000KT 1SM BR OVC005 FM151900 21003KT 5SM BR BKN015 OVC030 FM152100 20005KT P6SM SCT015 OVC060 FM160500 15005KT 6SM BR SCT011 OVC028